TAF Text Data
IDs:
Format:
Raw Decoded Include METAR

Data at: 1638 UTC 26 Sep 2021

KTYS 261553Z 09003KT 10SM SCT037 21/13 A3019 RMK AO2 SLP217 T02110128

KTYS 261129Z 2612/2712 00000KT P6SM FEW045
  FM261400 00000KT P6SM FEW035
  FM261800 28005KT P6SM FEW250
  FM270000 00000KT P6SM SKC


KGSO 261554Z VRB05KT 10SM FEW045 FEW250 21/09 A3015 RMK AO2 SLP204 T02060089

KGSO 261233Z 2613/2712 33009KT P6SM FEW250
  FM262300 00000KT P6SM SKC


KCLT 261552Z 02004KT 10SM FEW040 FEW250 23/12 A3017 RMK AO2 SLP209 T02330122

KCLT 261559Z 2616/2718 01004KT P6SM FEW045 FEW250
  FM261800 30004KT P6SM FEW050
  FM270000 VRB02KT P6SM SKC
  FM271300 23003KT P6SM SKC


KRDU 261551Z 01008G14KT 330V040 10SM FEW250 22/09 A3014 RMK AO2 SLP205 T02220089

KRDU 261233Z 2613/2712 34008KT P6SM FEW050 SCT250
  FM262300 00000KT P6SM SKC


KFBG 261556Z AUTO 35006KT 10SM CLR 24/10 A3012 RMK AO2 SLP201 T02440095 $

TAF KFBG 260900Z 2609/2715 VRB06KT 9999 SKC QNH3001INS TX26/2620Z TN13/2611Z

KFAY 261553Z 01007KT 10SM CLR 24/09 A3012 RMK AO2 SLP194 T02440094

KFAY 261233Z 2613/2712 35009KT P6SM FEW050
  FM262300 00000KT P6SM SKC


KRWI 261553Z AUTO 01009KT 10SM CLR 24/09 A3012 RMK AO2 SLP198 T02390089 TSNO

KRWI 261233Z 2613/2712 34009KT P6SM FEW050 SCT250
  FM262300 00000KT P6SM SKC


KISO 261556Z 35008KT 10SM CLR 23/11 A3013

KISO 261122Z 2612/2712 33007KT P6SM SKC
  FM262300 00000KT P6SM SKC AMD LTD TO CLD VIS AND WIND


KGWW 261635Z AUTO 02007G15KT 10SM CLR 23/09 A3011 RMK AO2 T02330093


KGSB 261556Z AUTO 01010G15KT 10SM CLR 23/08 A3010 RMK AO2 SLP195 T02330082 $

TAF KGSB 261200Z 2612/2718 34007KT 9999 FEW250 QNH3000INS TX23/2621Z TN13/2709Z LAST NO AMDS AFT 2612 NEXT 2620

KDPL 261615Z 10SM CLR 24/09 A3012 RMK AO2


KCTZ 261635Z AUTO 30006KT 10SM CLR 25/10 A3012 RMK AO2 T02470103


KORF 261551Z 34010G16KT 10SM CLR 21/09 A3007 RMK AO2 SLP182 T02110089

KORF 261120Z 2612/2712 33004KT P6SM SKC
  FM261300 34012G20KT P6SM SKC
  FM262000 32009KT P6SM SKC


KLFI 261556Z 34009KT 10SM FEW030 22/09 A3008 RMK AO2A SLP192 T02230088 $

TAF KLFI 261100Z 2611/2707 VRB06KT 9999 SKC QNH2995INS
  BECMG 2612/2613 33012G18KT 9999 FEW030 FEW045 QNH3001INS
  BECMG 2622/2623 30006KT 9999 SKC QNH3002INS TX21/2621Z TN16/2611Z


KNTU 261556Z 32015G19KT 10SM FEW045 24/09 A3006 RMK AO2 SLP181 T02390094

TAF KNTU 2615/2715 36013G18KT 9999 FEW030 SCT050 QNH3002INS
  BECMG 2618/2620 33011KT 9999 FEW350 QNH2998INS T74/2621Z T63/2709Z FN00199


KECG 261554Z 34010KT 10SM CLR 24/10 A3008 RMK AO2 SLP184 T02390100

KECG 261120Z 2612/2712 29007KT P6SM SKC
  FM261300 34010KT P6SM SKC
  FM262100 32008KT P6SM SKC


KEWN 261554Z 35009KT 10SM CLR 23/12 A3011 RMK AO2 SLP196 T02280122

KEWN 261122Z 2612/2712 33007KT P6SM SKC
  FM262300 00000KT P6SM SKC


KNKT 261556Z 31010KT 7SM SKC 23/12 A3011 RMK SLP192 T02330122

TAF KNKT 2615/2715 33009KT 9999 SKC QNH3001INS
  FM262300 VRB04KT 9999 SKC QNH3004INS T25/2618Z T13/2709Z


KILM 261553Z 34007KT 290V030 10SM CLR 25/12 A3011 RMK AO2 SLP196 T02500122

KILM 261120Z 2612/2712 31003KT P6SM SKC
  FM261300 32008KT P6SM FEW050
  FM262300 35003KT P6SM SKC


KCAE 261556Z 00000KT 10SM FEW045 25/13 A3014 RMK AO2 SLP202 T02500128

KCAE 261443Z 2615/2712 VRB03KT P6SM SKC
  FM270100 00000KT P6SM SKC


KSSC 261556Z AUTO 00000KT 10SM CLR 25/13 A3013 RMK AO2 SLP203 T02540132 $

TAF KSSC 261500Z 2615/2721 03006KT 9999 SKC QNH3010INS TX27/2622Z TN13/2711Z LAST NO AMDS AFT 2615 NEXT 2623

KMMT 261556Z AUTO 07005KT 10SM CLR 25/13 A3013 RMK AO2 SLP205 T02490131 $

TAF KMMT 261500Z 2615/2721 VRB06KT 9999 SKC QNH3010INS TX26/2621Z TN15/2711Z

KMYR 261556Z COR 35009KT 10SM CLR 24/13 A3013 RMK AO2 SLP202 T02440133

KMYR 261120Z 2612/2712 34004KT P6SM SKC
  FM261300 02008KT P6SM FEW050
  FM261900 16009KT P6SM SKC
  FM270000 15003KT P6SM SKC


KCHS 261556Z 03005KT 10SM CLR 27/15 A3013 RMK AO2 SLP200 T02670150

KCHS 261120Z 2612/2712 00000KT P6SM SKC
  FM261400 36006KT P6SM SKC
  FM262200 17004KT P6SM SKC


KSAV 261553Z 30005KT 10SM CLR 26/15 A3014 RMK AO2 SLP206 T02560150

KSAV 261120Z 2612/2712 00000KT P6SM SKC
  FM261400 33005KT P6SM SKC
  FM262200 14005KT P6SM SKC


KSVN 261556Z AUTO 30004KT 10SM CLR 27/17 A3011 RMK AO2 SLP199 T02690165 $

TAF KSVN 261200Z 2612/2718 VRB06KT 9999 SKC QNH3005INS
  BECMG 2622/2623 14006KT 9999 SKC QNH3001INS TX26/2618Z TN14/2612Z


KDCA 261552Z 31009G18KT 10SM FEW055 22/08 A3006 RMK AO2 SLP178 T02220078 $

KDCA 261447Z 2615/2718 27009KT P6SM FEW060 FEW250
  FM261600 30010G18KT P6SM SKC
  FM270000 VRB03KT P6SM SKC
  FM271400 22004KT P6SM FEW120 FEW200


KADW 261556Z AUTO 30015G19KT 10SM CLR 21/07 A3004 RMK AO2 SLP178 T02100072 $

TAF KADW 260900Z 2609/2715 VRB06KT 9999 SCT070 SCT250 QNH2996INS
  BECMG 2613/2614 30012G18KT 9999 SKC QNH2997INS
  BECMG 2622/2623 VRB06KT 9999 SKC QNH2999INS TX22/2619Z TN13/2708Z